sensor_id;sensor_type;location;lat;lon;timestamp;P1;durP1;ratioP1;P2;durP2;ratioP2
15858;SDS011;8029;52.202;7.308;2023-07-22T00:02:09;4.90;;;3.15;;
15858;SDS011;8029;52.202;7.308;2023-07-22T00:04:35;5.63;;;3.70;;
15858;SDS011;8029;52.202;7.308;2023-07-22T00:07:01;4.18;;;3.40;;
15858;SDS011;8029;52.202;7.308;2023-07-22T00:09:27;3.35;;;2.78;;
15858;SDS011;8029;52.202;7.308;2023-07-22T00:11:53;2.65;;;2.45;;
15858;SDS011;8029;52.202;7.308;2023-07-22T00:14:19;7.25;;;4.55;;
15858;SDS011;8029;52.202;7.308;2023-07-22T00:16:45;5.72;;;3.70;;
15858;SDS011;8029;52.202;7.308;2023-07-22T00:19:11;3.55;;;3.25;;
15858;SDS011;8029;52.202;7.308;2023-07-22T00:21:39;6.05;;;3.50;;
15858;SDS011;8029;52.202;7.308;2023-07-22T00:24:05;3.65;;;2.72;;
15858;SDS011;8029;52.202;7.308;2023-07-22T00:26:31;3.05;;;2.83;;
15858;SDS011;8029;52.202;7.308;2023-07-22T00:28:57;5.68;;;4.05;;
15858;SDS011;8029;52.202;7.308;2023-07-22T00:31:23;4.38;;;3.58;;
15858;SDS011;8029;52.202;7.308;2023-07-22T00:33:49;3.38;;;3.08;;
15858;SDS011;8029;52.202;7.308;2023-07-22T00:36:15;9.00;;;2.72;;
15858;SDS011;8029;52.202;7.308;2023-07-22T00:38:41;4.15;;;3.15;;
15858;SDS011;8029;52.202;7.308;2023-07-22T00:41:07;3.50;;;2.90;;
15858;SDS011;8029;52.202;7.308;2023-07-22T00:43:33;3.13;;;2.83;;
15858;SDS011;8029;52.202;7.308;2023-07-22T00:45:59;3.08;;;2.78;;
15858;SDS011;8029;52.202;7.308;2023-07-22T00:48:25;3.90;;;2.97;;
15858;SDS011;8029;52.202;7.308;2023-07-22T00:50:51;3.17;;;2.58;;
15858;SDS011;8029;52.202;7.308;2023-07-22T00:53:17;4.45;;;4.05;;
15858;SDS011;8029;52.202;7.308;2023-07-22T00:55:43;4.68;;;3.33;;
15858;SDS011;8029;52.202;7.308;2023-07-22T00:58:10;8.25;;;3.90;;
15858;SDS011;8029;52.202;7.308;2023-07-22T01:00:36;2.85;;;2.65;;
15858;SDS011;8029;52.202;7.308;2023-07-22T01:03:02;6.60;;;3.53;;
15858;SDS011;8029;52.202;7.308;2023-07-22T01:05:29;3.45;;;3.15;;
15858;SDS011;8029;52.202;7.308;2023-07-22T01:07:56;4.72;;;3.83;;
15858;SDS011;8029;52.202;7.308;2023-07-22T01:10:22;3.45;;;3.10;;
15858;SDS011;8029;52.202;7.308;2023-07-22T01:12:48;3.78;;;3.30;;
15858;SDS011;8029;52.202;7.308;2023-07-22T01:15:14;8.00;;;4.15;;
15858;SDS011;8029;52.202;7.308;2023-07-22T01:17:40;4.25;;;3.50;;
15858;SDS011;8029;52.202;7.308;2023-07-22T01:20:06;3.60;;;3.22;;
15858;SDS011;8029;52.202;7.308;2023-07-22T01:22:33;5.07;;;3.92;;
15858;SDS011;8029;52.202;7.308;2023-07-22T01:25:00;4.57;;;3.50;;
15858;SDS011;8029;52.202;7.308;2023-07-22T01:27:26;4.40;;;3.60;;
15858;SDS011;8029;52.202;7.308;2023-07-22T01:29:52;4.13;;;3.72;;
15858;SDS011;8029;52.202;7.308;2023-07-22T01:32:18;3.72;;;3.08;;
15858;SDS011;8029;52.202;7.308;2023-07-22T01:34:47;3.88;;;3.50;;
15858;SDS011;8029;52.202;7.308;2023-07-22T01:37:13;3.35;;;3.05;;
15858;SDS011;8029;52.202;7.308;2023-07-22T01:39:39;4.45;;;3.45;;
15858;SDS011;8029;52.202;7.308;2023-07-22T01:42:05;3.80;;;2.90;;
15858;SDS011;8029;52.202;7.308;2023-07-22T01:44:31;4.05;;;3.53;;
15858;SDS011;8029;52.202;7.308;2023-07-22T01:46:57;6.75;;;4.07;;
15858;SDS011;8029;52.202;7.308;2023-07-22T01:49:23;5.05;;;4.13;;
15858;SDS011;8029;52.202;7.308;2023-07-22T01:51:49;3.88;;;3.58;;
15858;SDS011;8029;52.202;7.308;2023-07-22T01:54:15;7.72;;;3.58;;
15858;SDS011;8029;52.202;7.308;2023-07-22T01:56:41;5.78;;;3.78;;
15858;SDS011;8029;52.202;7.308;2023-07-22T01:59:08;4.32;;;3.10;;
15858;SDS011;8029;52.202;7.308;2023-07-22T02:01:34;4.65;;;4.18;;
15858;SDS011;8029;52.202;7.308;2023-07-22T02:04:00;5.22;;;3.95;;
15858;SDS011;8029;52.202;7.308;2023-07-22T02:06:26;7.57;;;4.78;;
15858;SDS011;8029;52.202;7.308;2023-07-22T02:08:53;11.50;;;4.82;;
15858;SDS011;8029;52.202;7.308;2023-07-22T02:11:20;4.35;;;3.65;;
15858;SDS011;8029;52.202;7.308;2023-07-22T02:13:46;3.42;;;3.13;;
15858;SDS011;8029;52.202;7.308;2023-07-22T02:16:12;5.10;;;3.00;;
15858;SDS011;8029;52.202;7.308;2023-07-22T02:18:38;4.97;;;3.72;;
15858;SDS011;8029;52.202;7.308;2023-07-22T02:21:04;5.13;;;4.15;;
15858;SDS011;8029;52.202;7.308;2023-07-22T02:23:30;4.53;;;3.53;;
15858;SDS011;8029;52.202;7.308;2023-07-22T02:25:56;3.65;;;3.17;;
15858;SDS011;8029;52.202;7.308;2023-07-22T02:28:22;4.15;;;3.75;;
15858;SDS011;8029;52.202;7.308;2023-07-22T02:30:49;4.80;;;3.58;;
15858;SDS011;8029;52.202;7.308;2023-07-22T02:33:17;5.20;;;3.42;;
15858;SDS011;8029;52.202;7.308;2023-07-22T02:35:43;4.00;;;3.60;;
15858;SDS011;8029;52.202;7.308;2023-07-22T02:38:09;4.25;;;3.85;;
15858;SDS011;8029;52.202;7.308;2023-07-22T02:40:36;4.10;;;3.70;;
15858;SDS011;8029;52.202;7.308;2023-07-22T02:43:02;4.20;;;3.80;;
15858;SDS011;8029;52.202;7.308;2023-07-22T02:45:28;3.38;;;3.10;;
15858;SDS011;8029;52.202;7.308;2023-07-22T02:47:54;3.03;;;2.78;;
15858;SDS011;8029;52.202;7.308;2023-07-22T02:50:20;4.82;;;3.22;;
15858;SDS011;8029;52.202;7.308;2023-07-22T02:52:46;4.22;;;3.83;;
15858;SDS011;8029;52.202;7.308;2023-07-22T02:55:13;4.88;;;4.43;;
15858;SDS011;8029;52.202;7.308;2023-07-22T02:57:39;4.60;;;3.60;;
15858;SDS011;8029;52.202;7.308;2023-07-22T03:00:06;4.35;;;3.92;;
15858;SDS011;8029;52.202;7.308;2023-07-22T03:02:33;9.27;;;4.05;;
15858;SDS011;8029;52.202;7.308;2023-07-22T03:04:59;4.72;;;3.80;;
15858;SDS011;8029;52.202;7.308;2023-07-22T03:07:25;4.07;;;3.60;;
15858;SDS011;8029;52.202;7.308;2023-07-22T03:09:52;4.05;;;3.50;;
15858;SDS011;8029;52.202;7.308;2023-07-22T03:12:18;4.57;;;4.13;;
15858;SDS011;8029;52.202;7.308;2023-07-22T03:14:44;5.63;;;4.32;;
15858;SDS011;8029;52.202;7.308;2023-07-22T03:17:10;6.45;;;4.30;;
15858;SDS011;8029;52.202;7.308;2023-07-22T03:19:41;3.58;;;3.10;;
15858;SDS011;8029;52.202;7.308;2023-07-22T03:22:07;4.90;;;4.40;;
15858;SDS011;8029;52.202;7.308;2023-07-22T03:24:33;6.18;;;3.97;;
15858;SDS011;8029;52.202;7.308;2023-07-22T03:26:59;5.53;;;4.15;;
15858;SDS011;8029;52.202;7.308;2023-07-22T03:29:25;19.55;;;4.35;;
15858;SDS011;8029;52.202;7.308;2023-07-22T03:31:52;5.97;;;4.20;;
15858;SDS011;8029;52.202;7.308;2023-07-22T03:34:18;6.35;;;4.50;;
15858;SDS011;8029;52.202;7.308;2023-07-22T03:36:44;5.93;;;4.25;;
15858;SDS011;8029;52.202;7.308;2023-07-22T03:39:11;4.07;;;3.67;;
15858;SDS011;8029;52.202;7.308;2023-07-22T03:41:37;3.85;;;2.90;;
15858;SDS011;8029;52.202;7.308;2023-07-22T03:44:03;5.20;;;4.55;;
15858;SDS011;8029;52.202;7.308;2023-07-22T03:46:29;3.90;;;3.58;;
15858;SDS011;8029;52.202;7.308;2023-07-22T03:48:55;8.40;;;3.80;;
15858;SDS011;8029;52.202;7.308;2023-07-22T03:51:21;4.95;;;3.88;;
15858;SDS011;8029;52.202;7.308;2023-07-22T03:53:47;10.07;;;4.88;;
15858;SDS011;8029;52.202;7.308;2023-07-22T03:56:13;7.75;;;4.93;;
15858;SDS011;8029;52.202;7.308;2023-07-22T03:58:39;5.43;;;4.18;;
15858;SDS011;8029;52.202;7.308;2023-07-22T04:01:05;11.00;;;4.45;;
15858;SDS011;8029;52.202;7.308;2023-07-22T04:03:31;3.78;;;3.42;;
15858;SDS011;8029;52.202;7.308;2023-07-22T04:05:57;9.57;;;4.07;;
15858;SDS011;8029;52.202;7.308;2023-07-22T04:08:23;4.65;;;4.00;;
15858;SDS011;8029;52.202;7.308;2023-07-22T04:10:55;4.68;;;3.65;;
15858;SDS011;8029;52.202;7.308;2023-07-22T04:13:22;9.07;;;4.32;;
15858;SDS011;8029;52.202;7.308;2023-07-22T04:15:48;5.20;;;4.00;;
15858;SDS011;8029;52.202;7.308;2023-07-22T04:18:15;3.92;;;3.30;;
15858;SDS011;8029;52.202;7.308;2023-07-22T04:20:41;4.55;;;4.13;;
15858;SDS011;8029;52.202;7.308;2023-07-22T04:23:07;4.88;;;4.03;;
15858;SDS011;8029;52.202;7.308;2023-07-22T04:25:38;6.20;;;4.35;;
15858;SDS011;8029;52.202;7.308;2023-07-22T04:28:04;9.02;;;3.72;;
15858;SDS011;8029;52.202;7.308;2023-07-22T04:30:30;6.47;;;4.80;;
15858;SDS011;8029;52.202;7.308;2023-07-22T04:32:56;12.85;;;4.80;;
15858;SDS011;8029;52.202;7.308;2023-07-22T04:35:22;9.02;;;4.82;;
15858;SDS011;8029;52.202;7.308;2023-07-22T04:37:48;5.15;;;4.65;;
15858;SDS011;8029;52.202;7.308;2023-07-22T04:40:14;5.93;;;4.90;;
15858;SDS011;8029;52.202;7.308;2023-07-22T04:42:41;5.47;;;4.97;;
15858;SDS011;8029;52.202;7.308;2023-07-22T04:45:08;9.93;;;5.60;;
15858;SDS011;8029;52.202;7.308;2023-07-22T04:47:35;5.90;;;5.28;;
15858;SDS011;8029;52.202;7.308;2023-07-22T04:50:01;6.53;;;5.90;;
15858;SDS011;8029;52.202;7.308;2023-07-22T04:52:28;6.18;;;5.43;;
15858;SDS011;8029;52.202;7.308;2023-07-22T04:54:54;8.00;;;5.63;;
15858;SDS011;8029;52.202;7.308;2023-07-22T04:57:20;7.43;;;5.00;;
15858;SDS011;8029;52.202;7.308;2023-07-22T04:59:47;7.68;;;5.53;;
15858;SDS011;8029;52.202;7.308;2023-07-22T05:02:13;4.95;;;4.45;;
15858;SDS011;8029;52.202;7.308;2023-07-22T05:04:39;8.13;;;5.53;;
15858;SDS011;8029;52.202;7.308;2023-07-22T05:07:05;7.07;;;5.95;;
15858;SDS011;8029;52.202;7.308;2023-07-22T05:09:30;5.47;;;4.88;;
15858;SDS011;8029;52.202;7.308;2023-07-22T05:11:58;7.72;;;5.55;;
15858;SDS011;8029;52.202;7.308;2023-07-22T05:14:24;5.60;;;5.10;;
15858;SDS011;8029;52.202;7.308;2023-07-22T05:16:50;7.63;;;6.05;;
15858;SDS011;8029;52.202;7.308;2023-07-22T05:19:16;6.55;;;5.88;;
15858;SDS011;8029;52.202;7.308;2023-07-22T05:21:41;5.90;;;4.75;;
15858;SDS011;8029;52.202;7.308;2023-07-22T05:24:07;15.63;;;6.95;;
15858;SDS011;8029;52.202;7.308;2023-07-22T05:26:33;10.02;;;5.75;;
15858;SDS011;8029;52.202;7.308;2023-07-22T05:28:59;6.38;;;5.63;;
15858;SDS011;8029;52.202;7.308;2023-07-22T05:31:25;7.10;;;5.85;;
15858;SDS011;8029;52.202;7.308;2023-07-22T05:33:51;6.15;;;5.55;;
15858;SDS011;8029;52.202;7.308;2023-07-22T05:36:17;8.93;;;6.70;;
15858;SDS011;8029;52.202;7.308;2023-07-22T05:38:43;8.75;;;6.50;;
15858;SDS011;8029;52.202;7.308;2023-07-22T05:41:09;8.27;;;7.43;;
15858;SDS011;8029;52.202;7.308;2023-07-22T05:43:35;6.88;;;5.55;;
15858;SDS011;8029;52.202;7.308;2023-07-22T05:46:02;8.18;;;7.38;;
15858;SDS011;8029;52.202;7.308;2023-07-22T05:48:27;8.27;;;6.70;;
15858;SDS011;8029;52.202;7.308;2023-07-22T05:50:53;8.80;;;6.38;;
15858;SDS011;8029;52.202;7.308;2023-07-22T05:53:19;8.35;;;6.43;;
15858;SDS011;8029;52.202;7.308;2023-07-22T05:55:45;9.55;;;6.93;;
15858;SDS011;8029;52.202;7.308;2023-07-22T05:58:18;6.88;;;6.03;;
15858;SDS011;8029;52.202;7.308;2023-07-22T06:00:44;8.02;;;6.72;;
15858;SDS011;8029;52.202;7.308;2023-07-22T06:03:11;6.55;;;5.95;;
15858;SDS011;8029;52.202;7.308;2023-07-22T06:05:37;9.02;;;8.13;;
15858;SDS011;8029;52.202;7.308;2023-07-22T06:08:03;9.00;;;7.25;;
15858;SDS011;8029;52.202;7.308;2023-07-22T06:10:29;12.30;;;7.80;;
15858;SDS011;8029;52.202;7.308;2023-07-22T06:12:55;8.35;;;7.13;;
15858;SDS011;8029;52.202;7.308;2023-07-22T06:15:21;8.52;;;7.15;;
15858;SDS011;8029;52.202;7.308;2023-07-22T06:17:48;9.30;;;8.40;;
15858;SDS011;8029;52.202;7.308;2023-07-22T06:20:14;7.60;;;6.88;;
15858;SDS011;8029;52.202;7.308;2023-07-22T06:22:40;8.68;;;7.18;;
15858;SDS011;8029;52.202;7.308;2023-07-22T06:25:06;9.05;;;8.02;;
15858;SDS011;8029;52.202;7.308;2023-07-22T06:27:33;9.05;;;7.00;;
15858;SDS011;8029;52.202;7.308;2023-07-22T06:29:59;9.32;;;7.45;;
15858;SDS011;8029;52.202;7.308;2023-07-22T06:32:25;23.52;;;7.35;;
15858;SDS011;8029;52.202;7.308;2023-07-22T06:34:54;9.10;;;8.20;;
15858;SDS011;8029;52.202;7.308;2023-07-22T06:37:20;11.60;;;8.05;;
15858;SDS011;8029;52.202;7.308;2023-07-22T06:39:46;8.60;;;7.75;;
15858;SDS011;8029;52.202;7.308;2023-07-22T06:42:12;9.30;;;7.07;;
15858;SDS011;8029;52.202;7.308;2023-07-22T06:44:38;15.80;;;8.38;;
15858;SDS011;8029;52.202;7.308;2023-07-22T06:47:04;11.10;;;7.85;;
15858;SDS011;8029;52.202;7.308;2023-07-22T06:49:31;8.45;;;7.50;;
15858;SDS011;8029;52.202;7.308;2023-07-22T06:51:57;6.15;;;5.55;;
15858;SDS011;8029;52.202;7.308;2023-07-22T06:54:23;8.00;;;7.22;;
15858;SDS011;8029;52.202;7.308;2023-07-22T06:56:49;14.80;;;8.05;;
15858;SDS011;8029;52.202;7.308;2023-07-22T06:59:15;8.68;;;7.63;;
15858;SDS011;8029;52.202;7.308;2023-07-22T07:01:41;8.95;;;8.02;;
15858;SDS011;8029;52.202;7.308;2023-07-22T07:04:07;11.43;;;7.97;;
15858;SDS011;8029;52.202;7.308;2023-07-22T07:06:33;11.02;;;7.80;;
15858;SDS011;8029;52.202;7.308;2023-07-22T07:08:59;12.85;;;9.10;;
15858;SDS011;8029;52.202;7.308;2023-07-22T07:11:26;8.50;;;7.47;;
15858;SDS011;8029;52.202;7.308;2023-07-22T07:13:52;8.20;;;6.88;;
15858;SDS011;8029;52.202;7.308;2023-07-22T07:18:50;10.20;;;7.10;;
15858;SDS011;8029;52.202;7.308;2023-07-22T07:21:16;10.90;;;7.05;;
15858;SDS011;8029;52.202;7.308;2023-07-22T07:23:42;9.68;;;7.20;;
15858;SDS011;8029;52.202;7.308;2023-07-22T07:26:08;8.27;;;7.40;;
15858;SDS011;8029;52.202;7.308;2023-07-22T07:28:34;9.15;;;7.30;;
15858;SDS011;8029;52.202;7.308;2023-07-22T07:31:00;8.88;;;6.18;;
15858;SDS011;8029;52.202;7.308;2023-07-22T07:33:26;8.18;;;6.88;;
15858;SDS011;8029;52.202;7.308;2023-07-22T07:35:52;7.43;;;6.55;;
15858;SDS011;8029;52.202;7.308;2023-07-22T07:38:18;6.95;;;6.25;;
15858;SDS011;8029;52.202;7.308;2023-07-22T07:40:44;11.27;;;7.07;;
15858;SDS011;8029;52.202;7.308;2023-07-22T07:43:10;8.68;;;6.32;;
15858;SDS011;8029;52.202;7.308;2023-07-22T07:45:39;6.15;;;5.57;;
15858;SDS011;8029;52.202;7.308;2023-07-22T07:48:05;7.10;;;5.93;;
15858;SDS011;8029;52.202;7.308;2023-07-22T07:50:34;6.53;;;5.53;;
15858;SDS011;8029;52.202;7.308;2023-07-22T07:53:00;9.82;;;7.88;;
15858;SDS011;8029;52.202;7.308;2023-07-22T07:55:26;11.68;;;8.38;;
15858;SDS011;8029;52.202;7.308;2023-07-22T07:57:52;14.75;;;5.53;;
15858;SDS011;8029;52.202;7.308;2023-07-22T08:00:18;5.60;;;5.07;;
15858;SDS011;8029;52.202;7.308;2023-07-22T08:02:46;10.80;;;6.22;;
15858;SDS011;8029;52.202;7.308;2023-07-22T08:05:12;14.07;;;5.40;;
15858;SDS011;8029;52.202;7.308;2023-07-22T08:07:38;6.20;;;5.32;;
15858;SDS011;8029;52.202;7.308;2023-07-22T08:10:05;6.65;;;5.40;;
15858;SDS011;8029;52.202;7.308;2023-07-22T08:12:32;6.15;;;4.30;;
15858;SDS011;8029;52.202;7.308;2023-07-22T08:14:58;8.95;;;6.00;;
15858;SDS011;8029;52.202;7.308;2023-07-22T08:17:24;6.93;;;5.13;;
15858;SDS011;8029;52.202;7.308;2023-07-22T08:19:51;6.78;;;5.07;;
15858;SDS011;8029;52.202;7.308;2023-07-22T08:22:17;6.22;;;5.32;;
15858;SDS011;8029;52.202;7.308;2023-07-22T08:24:43;6.57;;;5.10;;
15858;SDS011;8029;52.202;7.308;2023-07-22T08:27:09;6.40;;;5.25;;
15858;SDS011;8029;52.202;7.308;2023-07-22T08:29:36;5.18;;;4.68;;
15858;SDS011;8029;52.202;7.308;2023-07-22T08:32:02;5.60;;;4.35;;
15858;SDS011;8029;52.202;7.308;2023-07-22T08:34:28;5.70;;;4.88;;
15858;SDS011;8029;52.202;7.308;2023-07-22T08:36:54;5.53;;;5.00;;
15858;SDS011;8029;52.202;7.308;2023-07-22T08:39:20;4.13;;;3.72;;
15858;SDS011;8029;52.202;7.308;2023-07-22T08:41:48;7.03;;;4.95;;
15858;SDS011;8029;52.202;7.308;2023-07-22T08:44:15;6.53;;;4.13;;
15858;SDS011;8029;52.202;7.308;2023-07-22T08:46:45;6.13;;;4.80;;
15858;SDS011;8029;52.202;7.308;2023-07-22T08:49:11;4.72;;;4.25;;
15858;SDS011;8029;52.202;7.308;2023-07-22T08:51:37;4.68;;;4.28;;
15858;SDS011;8029;52.202;7.308;2023-07-22T08:54:03;3.65;;;3.35;;
15858;SDS011;8029;52.202;7.308;2023-07-22T08:56:29;4.32;;;3.92;;
15858;SDS011;8029;52.202;7.308;2023-07-22T08:58:56;5.50;;;3.53;;
15858;SDS011;8029;52.202;7.308;2023-07-22T09:01:22;3.90;;;3.13;;
15858;SDS011;8029;52.202;7.308;2023-07-22T09:03:49;4.53;;;3.22;;
15858;SDS011;8029;52.202;7.308;2023-07-22T09:06:18;2.55;;;2.35;;
15858;SDS011;8029;52.202;7.308;2023-07-22T09:08:44;4.28;;;3.13;;
15858;SDS011;8029;52.202;7.308;2023-07-22T09:11:11;2.75;;;2.47;;
15858;SDS011;8029;52.202;7.308;2023-07-22T09:13:37;2.83;;;2.63;;
15858;SDS011;8029;52.202;7.308;2023-07-22T09:16:05;3.08;;;2.88;;
15858;SDS011;8029;52.202;7.308;2023-07-22T09:18:32;3.00;;;2.80;;
15858;SDS011;8029;52.202;7.308;2023-07-22T09:20:59;2.90;;;2.40;;
15858;SDS011;8029;52.202;7.308;2023-07-22T09:23:32;1.98;;;1.88;;
15858;SDS011;8029;52.202;7.308;2023-07-22T09:26:07;4.90;;;2.90;;
15858;SDS011;8029;52.202;7.308;2023-07-22T09:28:55;3.33;;;2.97;;
15858;SDS011;8029;52.202;7.308;2023-07-22T09:31:20;3.92;;;2.70;;
15858;SDS011;8029;52.202;7.308;2023-07-22T09:33:46;2.72;;;2.47;;
15858;SDS011;8029;52.202;7.308;2023-07-22T09:36:13;3.00;;;2.70;;
15858;SDS011;8029;52.202;7.308;2023-07-22T09:38:39;10.30;;;3.35;;
15858;SDS011;8029;52.202;7.308;2023-07-22T09:41:05;6.07;;;3.63;;
15858;SDS011;8029;52.202;7.308;2023-07-22T09:43:31;4.35;;;3.95;;
15858;SDS011;8029;52.202;7.308;2023-07-22T09:46:08;3.17;;;2.70;;
15858;SDS011;8029;52.202;7.308;2023-07-22T09:48:39;3.35;;;3.05;;
15858;SDS011;8029;52.202;7.308;2023-07-22T09:51:06;3.08;;;2.75;;
15858;SDS011;8029;52.202;7.308;2023-07-22T09:53:36;5.15;;;3.72;;
15858;SDS011;8029;52.202;7.308;2023-07-22T09:56:03;3.95;;;3.58;;
15858;SDS011;8029;52.202;7.308;2023-07-22T09:58:30;4.25;;;3.45;;
15858;SDS011;8029;52.202;7.308;2023-07-22T10:00:56;4.15;;;3.70;;
15858;SDS011;8029;52.202;7.308;2023-07-22T10:03:22;5.03;;;3.70;;
15858;SDS011;8029;52.202;7.308;2023-07-22T10:05:53;6.43;;;3.60;;
15858;SDS011;8029;52.202;7.308;2023-07-22T10:08:19;4.10;;;3.22;;
15858;SDS011;8029;52.202;7.308;2023-07-22T10:10:48;3.42;;;3.13;;
15858;SDS011;8029;52.202;7.308;2023-07-22T10:13:17;3.33;;;3.03;;
15858;SDS011;8029;52.202;7.308;2023-07-22T10:15:43;4.13;;;3.58;;
15858;SDS011;8029;52.202;7.308;2023-07-22T10:18:11;2.63;;;2.42;;
15858;SDS011;8029;52.202;7.308;2023-07-22T10:20:37;2.90;;;2.60;;
15858;SDS011;8029;52.202;7.308;2023-07-22T10:23:04;3.05;;;2.80;;
15858;SDS011;8029;52.202;7.308;2023-07-22T10:25:30;3.13;;;2.88;;
15858;SDS011;8029;52.202;7.308;2023-07-22T10:27:56;5.90;;;4.07;;
15858;SDS011;8029;52.202;7.308;2023-07-22T10:30:22;4.20;;;3.22;;
15858;SDS011;8029;52.202;7.308;2023-07-22T10:32:50;3.17;;;2.88;;
15858;SDS011;8029;52.202;7.308;2023-07-22T10:35:24;3.50;;;2.70;;
15858;SDS011;8029;52.202;7.308;2023-07-22T10:38:09;3.30;;;3.00;;
15858;SDS011;8029;52.202;7.308;2023-07-22T10:40:45;4.25;;;3.10;;
15858;SDS011;8029;52.202;7.308;2023-07-22T10:43:12;3.80;;;3.40;;
15858;SDS011;8029;52.202;7.308;2023-07-22T10:45:42;5.95;;;3.35;;
15858;SDS011;8029;52.202;7.308;2023-07-22T10:48:09;2.92;;;2.65;;
15858;SDS011;8029;52.202;7.308;2023-07-22T10:50:42;2.45;;;2.25;;
15858;SDS011;8029;52.202;7.308;2023-07-22T10:53:09;2.95;;;2.55;;
15858;SDS011;8029;52.202;7.308;2023-07-22T10:56:02;2.95;;;2.08;;
15858;SDS011;8029;52.202;7.308;2023-07-22T10:58:21;2.15;;;2.05;;
15858;SDS011;8029;52.202;7.308;2023-07-22T11:00:49;2.63;;;2.42;;
15858;SDS011;8029;52.202;7.308;2023-07-22T11:03:15;5.35;;;3.08;;
15858;SDS011;8029;52.202;7.308;2023-07-22T11:05:52;2.20;;;2.00;;
15858;SDS011;8029;52.202;7.308;2023-07-22T11:08:39;2.15;;;2.00;;
15858;SDS011;8029;52.202;7.308;2023-07-22T11:11:06;3.08;;;2.83;;
15858;SDS011;8029;52.202;7.308;2023-07-22T11:13:37;4.13;;;2.80;;
15858;SDS011;8029;52.202;7.308;2023-07-22T11:16:08;4.63;;;3.20;;
15858;SDS011;8029;52.202;7.308;2023-07-22T11:18:41;2.60;;;2.40;;
15858;SDS011;8029;52.202;7.308;2023-07-22T11:21:10;4.28;;;2.85;;
15858;SDS011;8029;52.202;7.308;2023-07-22T11:23:37;2.88;;;2.60;;
15858;SDS011;8029;52.202;7.308;2023-07-22T11:26:03;3.58;;;2.72;;
15858;SDS011;8029;52.202;7.308;2023-07-22T11:28:29;2.50;;;1.83;;
15858;SDS011;8029;52.202;7.308;2023-07-22T11:30:55;3.95;;;2.67;;
15858;SDS011;8029;52.202;7.308;2023-07-22T11:33:24;2.90;;;2.60;;
15858;SDS011;8029;52.202;7.308;2023-07-22T11:35:50;3.10;;;2.58;;
15858;SDS011;8029;52.202;7.308;2023-07-22T11:38:16;2.90;;;2.70;;
15858;SDS011;8029;52.202;7.308;2023-07-22T11:40:41;2.05;;;1.95;;
15858;SDS011;8029;52.202;7.308;2023-07-22T11:43:07;3.70;;;2.70;;
15858;SDS011;8029;52.202;7.308;2023-07-22T11:45:33;2.55;;;2.30;;
15858;SDS011;8029;52.202;7.308;2023-07-22T11:48:08;8.55;;;3.13;;
15858;SDS011;8029;52.202;7.308;2023-07-22T11:50:34;3.25;;;2.95;;
15858;SDS011;8029;52.202;7.308;2023-07-22T11:53:00;2.58;;;2.35;;
15858;SDS011;8029;52.202;7.308;2023-07-22T11:55:26;4.18;;;2.17;;
15858;SDS011;8029;52.202;7.308;2023-07-22T11:57:52;2.33;;;2.00;;
15858;SDS011;8029;52.202;7.308;2023-07-22T12:00:18;3.53;;;2.28;;
15858;SDS011;8029;52.202;7.308;2023-07-22T12:02:45;4.22;;;3.22;;
15858;SDS011;8029;52.202;7.308;2023-07-22T12:05:11;1.70;;;1.60;;
15858;SDS011;8029;52.202;7.308;2023-07-22T12:07:39;2.40;;;2.13;;
15858;SDS011;8029;52.202;7.308;2023-07-22T12:10:06;1.35;;;1.35;;
15858;SDS011;8029;52.202;7.308;2023-07-22T12:12:39;2.20;;;2.00;;
15858;SDS011;8029;52.202;7.308;2023-07-22T12:15:19;3.22;;;2.53;;
15858;SDS011;8029;52.202;7.308;2023-07-22T12:20:15;1.98;;;1.75;;
15858;SDS011;8029;52.202;7.308;2023-07-22T12:22:41;2.58;;;2.15;;
15858;SDS011;8029;52.202;7.308;2023-07-22T12:25:10;2.00;;;1.85;;
15858;SDS011;8029;52.202;7.308;2023-07-22T12:27:37;2.30;;;1.90;;
15858;SDS011;8029;52.202;7.308;2023-07-22T12:30:03;3.70;;;2.63;;
15858;SDS011;8029;52.202;7.308;2023-07-22T12:32:30;5.55;;;2.95;;
15858;SDS011;8029;52.202;7.308;2023-07-22T12:34:56;2.47;;;2.28;;
15858;SDS011;8029;52.202;7.308;2023-07-22T12:37:22;3.13;;;2.85;;
15858;SDS011;8029;52.202;7.308;2023-07-22T12:39:48;2.60;;;2.10;;
15858;SDS011;8029;52.202;7.308;2023-07-22T12:42:14;3.25;;;2.15;;
15858;SDS011;8029;52.202;7.308;2023-07-22T12:44:40;2.60;;;2.22;;
15858;SDS011;8029;52.202;7.308;2023-07-22T12:47:06;1.52;;;1.42;;
15858;SDS011;8029;52.202;7.308;2023-07-22T12:49:32;5.90;;;2.75;;
15858;SDS011;8029;52.202;7.308;2023-07-22T12:51:59;2.30;;;2.10;;
15858;SDS011;8029;52.202;7.308;2023-07-22T12:54:29;3.33;;;2.53;;
15858;SDS011;8029;52.202;7.308;2023-07-22T12:56:55;1.83;;;1.73;;
15858;SDS011;8029;52.202;7.308;2023-07-22T12:59:21;2.03;;;1.83;;
15858;SDS011;8029;52.202;7.308;2023-07-22T13:01:47;3.00;;;2.05;;
15858;SDS011;8029;52.202;7.308;2023-07-22T13:04:13;3.20;;;2.30;;
15858;SDS011;8029;52.202;7.308;2023-07-22T13:06:39;3.42;;;2.33;;
15858;SDS011;8029;52.202;7.308;2023-07-22T13:09:05;3.13;;;2.83;;
15858;SDS011;8029;52.202;7.308;2023-07-22T13:11:31;2.22;;;1.85;;
15858;SDS011;8029;52.202;7.308;2023-07-22T13:13:57;1.70;;;1.60;;
15858;SDS011;8029;52.202;7.308;2023-07-22T13:16:23;2.25;;;2.05;;
15858;SDS011;8029;52.202;7.308;2023-07-22T13:18:49;3.63;;;2.33;;
15858;SDS011;8029;52.202;7.308;2023-07-22T13:21:15;2.70;;;2.50;;
15858;SDS011;8029;52.202;7.308;2023-07-22T13:23:41;2.53;;;2.33;;
15858;SDS011;8029;52.202;7.308;2023-07-22T13:26:07;3.17;;;2.78;;
15858;SDS011;8029;52.202;7.308;2023-07-22T13:28:33;2.88;;;2.25;;
15858;SDS011;8029;52.202;7.308;2023-07-22T13:30:59;2.85;;;2.20;;
15858;SDS011;8029;52.202;7.308;2023-07-22T13:33:25;2.53;;;2.33;;
15858;SDS011;8029;52.202;7.308;2023-07-22T13:35:51;3.08;;;2.65;;
15858;SDS011;8029;52.202;7.308;2023-07-22T13:38:17;2.25;;;2.05;;
15858;SDS011;8029;52.202;7.308;2023-07-22T13:40:43;2.67;;;2.47;;
15858;SDS011;8029;52.202;7.308;2023-07-22T13:43:09;3.33;;;2.35;;
15858;SDS011;8029;52.202;7.308;2023-07-22T13:45:35;6.07;;;2.45;;
15858;SDS011;8029;52.202;7.308;2023-07-22T13:48:01;4.65;;;2.47;;
15858;SDS011;8029;52.202;7.308;2023-07-22T13:50:27;2.90;;;2.70;;
15858;SDS011;8029;52.202;7.308;2023-07-22T13:52:53;2.35;;;2.15;;
15858;SDS011;8029;52.202;7.308;2023-07-22T13:55:19;2.35;;;2.15;;
15858;SDS011;8029;52.202;7.308;2023-07-22T13:57:45;1.85;;;1.75;;
15858;SDS011;8029;52.202;7.308;2023-07-22T14:00:11;5.10;;;3.10;;
15858;SDS011;8029;52.202;7.308;2023-07-22T14:02:39;2.10;;;1.95;;
15858;SDS011;8029;52.202;7.308;2023-07-22T14:05:05;1.98;;;1.83;;
15858;SDS011;8029;52.202;7.308;2023-07-22T14:07:31;2.03;;;1.73;;
15858;SDS011;8029;52.202;7.308;2023-07-22T14:09:57;2.33;;;2.10;;
15858;SDS011;8029;52.202;7.308;2023-07-22T14:12:23;2.15;;;1.95;;
15858;SDS011;8029;52.202;7.308;2023-07-22T14:14:49;2.28;;;2.10;;
15858;SDS011;8029;52.202;7.308;2023-07-22T14:17:15;2.13;;;1.88;;
15858;SDS011;8029;52.202;7.308;2023-07-22T14:19:41;1.85;;;1.75;;
15858;SDS011;8029;52.202;7.308;2023-07-22T14:22:07;2.08;;;1.88;;
15858;SDS011;8029;52.202;7.308;2023-07-22T14:24:33;6.80;;;2.75;;
15858;SDS011;8029;52.202;7.308;2023-07-22T14:26:59;2.30;;;2.10;;
15858;SDS011;8029;52.202;7.308;2023-07-22T14:29:25;2.22;;;1.63;;
15858;SDS011;8029;52.202;7.308;2023-07-22T14:31:51;1.73;;;1.63;;
15858;SDS011;8029;52.202;7.308;2023-07-22T14:34:17;2.45;;;1.63;;
15858;SDS011;8029;52.202;7.308;2023-07-22T14:36:43;1.98;;;1.67;;
15858;SDS011;8029;52.202;7.308;2023-07-22T14:39:09;3.50;;;1.77;;
15858;SDS011;8029;52.202;7.308;2023-07-22T14:41:35;2.95;;;1.65;;
15858;SDS011;8029;52.202;7.308;2023-07-22T14:44:01;2.30;;;1.63;;
15858;SDS011;8029;52.202;7.308;2023-07-22T14:46:27;5.45;;;1.63;;
15858;SDS011;8029;52.202;7.308;2023-07-22T14:48:54;1.98;;;1.38;;
15858;SDS011;8029;52.202;7.308;2023-07-22T14:51:20;1.75;;;1.13;;
15858;SDS011;8029;52.202;7.308;2023-07-22T14:53:46;2.38;;;1.83;;
15858;SDS011;8029;52.202;7.308;2023-07-22T14:56:12;2.17;;;1.50;;
15858;SDS011;8029;52.202;7.308;2023-07-22T14:58:38;1.88;;;1.23;;
15858;SDS011;8029;52.202;7.308;2023-07-22T15:01:05;1.02;;;1.00;;
15858;SDS011;8029;52.202;7.308;2023-07-22T15:03:31;2.05;;;1.63;;